createdAt,value
2018-11-23T00:00:09.885Z,5.80
2018-11-23T00:02:38.261Z,5.70
2018-11-23T00:05:06.376Z,6.00
2018-11-23T00:07:34.457Z,6.10
2018-11-23T00:10:03.078Z,6.33
2018-11-23T00:12:31.508Z,4.97
2018-11-23T00:14:59.917Z,4.87
2018-11-23T00:17:28.306Z,4.97
2018-11-23T00:19:56.667Z,6.23
2018-11-23T00:22:25.068Z,5.17
2018-11-23T00:24:53.468Z,5.17
2018-11-23T00:27:21.862Z,5.10
2018-11-23T00:29:50.228Z,6.13
2018-11-23T00:32:18.604Z,5.60
2018-11-23T00:34:47.093Z,5.43
2018-11-23T00:37:15.478Z,5.30
2018-11-23T00:39:43.832Z,5.70
2018-11-23T00:42:12.202Z,4.63
2018-11-23T00:44:40.608Z,5.30
2018-11-23T00:47:09.028Z,5.37
2018-11-23T00:49:37.392Z,5.60
2018-11-23T00:52:05.611Z,6.30
2018-11-23T00:54:33.984Z,5.70
2018-11-23T00:57:02.352Z,6.03
2018-11-23T00:59:30.447Z,5.63
2018-11-23T01:02:04.272Z,4.77
2018-11-23T01:04:33.788Z,5.80
2018-11-23T01:07:02.424Z,4.20
2018-11-23T01:09:30.785Z,5.23
2018-11-23T01:11:59.188Z,5.27
2018-11-23T01:14:27.565Z,5.77
2018-11-23T01:16:56.736Z,5.67
2018-11-23T01:19:25.099Z,5.37
2018-11-23T01:21:53.488Z,6.20
2018-11-23T01:24:21.849Z,5.83
2018-11-23T01:26:50.917Z,4.37
2018-11-23T01:29:18.984Z,5.13
2018-11-23T01:31:47.368Z,5.40
2018-11-23T01:34:15.745Z,5.40
2018-11-23T01:36:44.121Z,4.57
2018-11-23T01:39:12.508Z,4.43
2018-11-23T01:41:41.035Z,4.73
2018-11-23T01:44:09.680Z,5.13
2018-11-23T01:46:38.111Z,5.27
2018-11-23T01:49:06.539Z,5.43
2018-11-23T01:51:34.904Z,5.23
2018-11-23T01:54:03.281Z,5.40
2018-11-23T01:56:31.655Z,5.03
2018-11-23T01:58:59.753Z,5.37
2018-11-23T02:01:28.137Z,4.27
2018-11-23T02:03:56.525Z,5.93
2018-11-23T02:06:24.896Z,6.07
2018-11-23T02:08:53.308Z,5.90
2018-11-23T02:11:21.669Z,5.50
2018-11-23T02:13:50.197Z,5.40
2018-11-23T02:16:18.560Z,5.27
2018-11-23T02:18:47.873Z,5.27
2018-11-23T02:21:16.240Z,6.47
2018-11-23T02:23:44.602Z,5.00
2018-11-23T02:26:13.151Z,5.20
2018-11-23T02:28:41.558Z,6.00
2018-11-23T02:31:10.345Z,5.47
2018-11-23T02:33:40.295Z,4.87
2018-11-23T02:36:09.666Z,5.47
2018-11-23T02:38:38.476Z,5.10
2018-11-23T02:41:06.837Z,4.50
2018-11-23T02:43:35.225Z,5.10
2018-11-23T02:46:03.688Z,5.50
2018-11-23T02:48:32.060Z,4.57
2018-11-23T02:51:00.404Z,5.27
2018-11-23T02:53:28.781Z,5.07
2018-11-23T02:55:57.140Z,5.37
2018-11-23T02:58:25.563Z,5.07
2018-11-23T03:00:53.922Z,5.33
2018-11-23T03:03:22.311Z,5.80
2018-11-23T03:05:50.776Z,4.97
2018-11-23T03:08:19.360Z,5.60
2018-11-23T03:10:47.717Z,5.97
2018-11-23T03:13:16.100Z,5.13
2018-11-23T03:15:44.453Z,4.90
2018-11-23T03:18:12.829Z,4.43
2018-11-23T03:20:41.181Z,4.63
2018-11-23T03:23:09.568Z,5.33
2018-11-23T03:25:37.928Z,4.97
2018-11-23T03:28:06.352Z,4.70
2018-11-23T03:30:34.885Z,4.47
2018-11-23T03:33:03.249Z,4.33
2018-11-23T03:35:31.601Z,5.13
2018-11-23T03:37:59.963Z,4.90
2018-11-23T03:40:28.337Z,4.97
2018-11-23T03:42:56.709Z,4.97
2018-11-23T03:45:25.081Z,4.70
2018-11-23T03:47:53.604Z,6.27
2018-11-23T03:50:22.003Z,4.40
2018-11-23T03:56:11.965Z,4.30
2018-11-23T03:58:40.372Z,4.23
2018-11-23T04:01:08.762Z,4.10
2018-11-23T04:03:37.169Z,5.13
2018-11-23T04:06:05.480Z,4.50
2018-11-23T04:08:33.875Z,5.13
2018-11-23T04:11:02.301Z,4.10
2018-11-23T04:13:30.721Z,4.10
2018-11-23T04:16:05.513Z,4.43
2018-11-23T04:18:33.593Z,6.10
2018-11-23T04:21:02.826Z,5.57
2018-11-23T04:23:32.573Z,6.07
2018-11-23T04:26:01.081Z,4.77
2018-11-23T04:28:29.561Z,4.97
2018-11-23T04:30:57.965Z,6.80
2018-11-23T04:33:26.888Z,5.73
2018-11-23T04:35:55.713Z,6.40
2018-11-23T04:38:24.091Z,6.13
2018-11-23T04:40:52.553Z,5.17
2018-11-23T04:43:20.933Z,7.23
2018-11-23T04:45:49.309Z,5.90
2018-11-23T04:48:17.681Z,10.73
2018-11-23T04:50:46.073Z,6.80
2018-11-23T04:53:14.449Z,6.93
2018-11-23T04:55:42.851Z,6.10
2018-11-23T04:58:11.241Z,9.80
2018-11-23T05:00:39.649Z,14.30
2018-11-23T05:03:08.040Z,6.00
2018-11-23T05:05:36.432Z,5.70
2018-11-23T05:08:04.996Z,6.30
2018-11-23T05:10:33.411Z,6.33
2018-11-23T05:13:01.794Z,7.70
2018-11-23T05:15:30.202Z,7.57
2018-11-23T05:17:58.565Z,6.20
2018-11-23T05:20:26.949Z,6.13
2018-11-23T05:22:55.318Z,6.73
2018-11-23T05:25:23.736Z,5.93
2018-11-23T05:27:51.836Z,6.83
2018-11-23T05:30:21.393Z,7.57
2018-11-23T05:32:49.769Z,10.80
2018-11-23T05:35:18.766Z,8.73
2018-11-23T05:37:47.153Z,8.00
2018-11-23T05:40:17.162Z,7.90
2018-11-23T05:42:45.614Z,6.30
2018-11-23T05:45:15.785Z,9.60
2018-11-23T05:47:44.519Z,11.27
2018-11-23T05:50:21.561Z,11.73
2018-11-23T05:52:49.944Z,14.63
2018-11-23T05:55:18.384Z,9.60
2018-11-23T05:57:46.810Z,12.03
2018-11-23T06:00:20.164Z,9.97
2018-11-23T06:02:48.592Z,7.43
2018-11-23T06:05:17.022Z,10.43
2018-11-23T06:07:45.442Z,11.87
2018-11-23T06:10:14.763Z,8.37
2018-11-23T06:12:43.208Z,8.33
2018-11-23T06:15:14.277Z,7.43
2018-11-23T06:17:43.065Z,9.07
2018-11-23T06:20:13.729Z,10.73
2018-11-23T06:22:42.676Z,7.47
2018-11-23T06:25:17.041Z,8.60
2018-11-23T06:27:45.488Z,8.00
2018-11-23T06:30:13.953Z,7.40
2018-11-23T06:32:53.591Z,6.97
2018-11-23T06:35:21.979Z,7.57
2018-11-23T06:37:50.098Z,8.13
2018-11-23T06:40:19.021Z,7.20
2018-11-23T06:42:47.456Z,8.40
2018-11-23T06:45:15.907Z,7.73
2018-11-23T06:47:44.341Z,7.37
2018-11-23T06:50:14.349Z,7.80
2018-11-23T06:52:42.785Z,8.70
2018-11-23T06:55:11.711Z,8.37
2018-11-23T06:57:40.524Z,7.63
2018-11-23T07:00:12.525Z,8.97
2018-11-23T07:02:41.348Z,7.60
2018-11-23T07:05:10.237Z,8.80
2018-11-23T07:07:38.351Z,8.77
2018-11-23T07:10:08.162Z,7.07
2018-11-23T07:12:37.326Z,7.50
2018-11-23T07:15:07.968Z,7.23
2018-11-23T07:17:36.380Z,8.70
2018-11-23T07:20:05.866Z,9.63
2018-11-23T07:22:34.277Z,7.30
2018-11-23T07:25:02.656Z,9.10
2018-11-23T07:27:30.785Z,8.40
2018-11-23T07:29:59.172Z,7.27
2018-11-23T07:32:27.557Z,7.33
2018-11-23T07:34:55.752Z,7.37
2018-11-23T07:37:24.288Z,7.57
2018-11-23T07:42:12.165Z,7.03
2018-11-23T07:44:40.608Z,7.20
2018-11-23T07:47:09.128Z,6.37
2018-11-23T07:51:01.966Z,7.70
2018-11-23T07:53:30.441Z,7.13
2018-11-23T07:55:58.828Z,8.17
2018-11-23T07:58:26.912Z,6.10
2018-11-23T08:00:55.313Z,9.47
2018-11-23T08:03:23.757Z,7.60
2018-11-23T08:05:52.138Z,9.50
2018-11-23T08:08:20.550Z,8.57
2018-11-23T08:10:48.157Z,10.17
2018-11-23T08:13:16.587Z,9.53
2018-11-23T08:15:44.957Z,10.37
2018-11-23T08:18:13.357Z,8.40
2018-11-23T08:20:41.789Z,11.80
2018-11-23T08:23:10.181Z,8.07
2018-11-23T08:25:38.555Z,8.10
2018-11-23T08:28:07.022Z,9.00
2018-11-23T08:30:35.402Z,8.70
2018-11-23T08:33:03.826Z,10.30
2018-11-23T08:35:32.196Z,9.83
2018-11-23T08:38:00.625Z,9.03
2018-11-23T08:40:29.001Z,8.33
2018-11-23T08:42:57.487Z,7.13
2018-11-23T08:45:26.879Z,9.20
2018-11-23T08:47:55.278Z,9.43
2018-11-23T08:50:25.305Z,7.80
2018-11-23T08:52:53.793Z,8.30
2018-11-23T08:55:22.436Z,8.87
2018-11-23T08:57:50.822Z,7.63
2018-11-23T09:00:21.942Z,9.27
2018-11-23T09:02:51.626Z,7.57
2018-11-23T09:05:20.024Z,9.27
2018-11-23T09:07:49.604Z,9.43
2018-11-23T09:10:19.676Z,9.87
2018-11-23T09:12:50.763Z,10.40
2018-11-23T09:15:19.194Z,8.80
2018-11-23T09:17:47.569Z,7.97
2018-11-23T09:20:16.667Z,8.60
2018-11-23T09:22:45.192Z,7.73
2018-11-23T09:25:18.804Z,9.00
2018-11-23T09:27:47.198Z,8.43
2018-11-23T09:30:18.013Z,8.70
2018-11-23T09:32:47.177Z,8.33
2018-11-23T09:35:15.588Z,7.17
2018-11-23T09:37:44.214Z,7.13
2018-11-23T09:40:14.854Z,6.87
2018-11-23T09:42:43.348Z,9.97
2018-11-23T09:45:14.308Z,7.53
2018-11-23T09:47:43.070Z,7.57
2018-11-23T09:50:13.310Z,8.63
2018-11-23T09:52:41.881Z,8.77
2018-11-23T09:55:10.565Z,9.97
2018-11-23T09:57:39.237Z,10.83
2018-11-23T10:00:14.198Z,8.47
2018-11-23T10:02:42.897Z,9.63
2018-11-23T10:05:12.265Z,9.20
2018-11-23T10:07:41.132Z,7.67
2018-11-23T10:10:10.552Z,9.30
2018-11-23T10:12:38.964Z,9.30
2018-11-23T10:15:08.083Z,9.90
2018-11-23T10:17:36.497Z,9.30
2018-11-23T10:20:07.375Z,9.60
2018-11-23T10:22:35.745Z,10.17
2018-11-23T10:25:04.464Z,9.33
2018-11-23T10:27:32.894Z,10.40
2018-11-23T10:30:01.365Z,11.00
2018-11-23T10:32:29.713Z,9.87
2018-11-23T10:34:58.105Z,10.47
2018-11-23T10:37:26.484Z,8.80
2018-11-23T10:39:54.901Z,11.40
2018-11-23T10:42:23.323Z,12.87
2018-11-23T10:44:51.775Z,11.17
2018-11-23T10:47:19.851Z,11.67
2018-11-23T10:49:48.247Z,12.33
2018-11-23T10:52:16.637Z,10.00
2018-11-23T10:54:45.053Z,9.73
2018-11-23T10:57:14.093Z,11.63
2018-11-23T10:59:42.492Z,11.33
2018-11-23T11:02:16.303Z,8.93
2018-11-23T11:04:49.882Z,10.17
2018-11-23T11:07:18.289Z,10.63
2018-11-23T11:09:46.704Z,9.67
2018-11-23T11:12:15.137Z,8.17
2018-11-23T11:14:43.557Z,11.10
2018-11-23T11:17:11.944Z,9.40
2018-11-23T11:19:40.369Z,9.10
2018-11-23T11:22:08.776Z,10.37
2018-11-23T11:24:37.233Z,10.33
2018-11-23T11:27:06.025Z,9.17
2018-11-23T11:29:34.408Z,10.13
2018-11-23T11:32:02.813Z,11.13
2018-11-23T11:34:31.204Z,10.70
2018-11-23T11:36:59.739Z,9.83
2018-11-23T11:39:28.125Z,10.63
2018-11-23T11:41:56.526Z,10.37
2018-11-23T11:44:24.914Z,9.17
2018-11-23T11:46:53.466Z,10.03
2018-11-23T11:49:21.841Z,11.37
2018-11-23T11:51:50.236Z,10.67
2018-11-23T11:54:18.624Z,11.57
2018-11-23T11:56:47.140Z,8.93
2018-11-23T11:59:15.505Z,9.07
2018-11-23T12:01:43.930Z,9.87
2018-11-23T12:04:12.315Z,9.93
2018-11-23T12:06:40.705Z,11.37
2018-11-23T12:09:10.900Z,10.33
2018-11-23T12:11:39.304Z,11.20
2018-11-23T12:14:07.700Z,11.80
2018-11-23T12:16:36.101Z,9.30
2018-11-23T12:19:05.647Z,8.97
2018-11-23T12:21:32.957Z,9.03
2018-11-23T12:24:01.336Z,8.80
2018-11-23T12:26:29.771Z,8.00
2018-11-23T12:28:58.168Z,8.43
2018-11-23T12:31:26.566Z,7.93
2018-11-23T12:33:54.965Z,8.33
2018-11-23T12:36:23.401Z,10.17
2018-11-23T12:38:51.789Z,9.53
2018-11-23T12:41:20.182Z,6.90
2018-11-23T12:43:48.553Z,9.47
2018-11-23T12:46:16.952Z,10.60
2018-11-23T12:48:45.359Z,8.03
2018-11-23T12:51:13.773Z,9.93
2018-11-23T12:53:42.156Z,7.77
2018-11-23T12:56:10.561Z,8.30
2018-11-23T12:58:38.981Z,8.50
2018-11-23T13:01:07.386Z,6.77
2018-11-23T13:03:35.767Z,8.13
2018-11-23T13:06:04.237Z,7.73
2018-11-23T13:08:32.641Z,9.10
2018-11-23T13:11:01.073Z,11.30
2018-11-23T13:13:29.472Z,9.20
2018-11-23T13:15:57.866Z,7.33
2018-11-23T13:18:26.364Z,8.43
2018-11-23T13:20:54.748Z,8.07
2018-11-23T13:23:23.170Z,9.40
2018-11-23T13:25:51.572Z,7.13
2018-11-23T13:28:19.963Z,8.57
2018-11-23T13:30:48.745Z,7.77
2018-11-23T13:33:17.157Z,9.50
2018-11-23T13:35:45.559Z,9.03
2018-11-23T13:38:13.961Z,7.63
2018-11-23T13:40:42.331Z,8.30
2018-11-23T13:43:10.712Z,8.63
2018-11-23T13:45:39.107Z,7.77
2018-11-23T13:48:07.532Z,9.03
2018-11-23T13:50:35.940Z,7.20
2018-11-23T13:53:04.392Z,8.00
2018-11-23T13:55:32.488Z,7.50
2018-11-23T13:58:01.338Z,7.60
2018-11-23T14:00:30.241Z,10.57
2018-11-23T14:02:58.632Z,8.73
2018-11-23T14:05:28.621Z,8.50
2018-11-23T14:07:58.561Z,7.43
2018-11-23T14:10:27.453Z,8.00
2018-11-23T14:12:55.851Z,8.60
2018-11-23T14:15:26.325Z,8.73
2018-11-23T14:17:55.737Z,7.47
2018-11-23T14:20:24.921Z,9.63
2018-11-23T14:22:53.380Z,8.47
2018-11-23T14:25:23.210Z,8.27
2018-11-23T14:27:52.150Z,8.40
2018-11-23T14:30:21.903Z,8.20
2018-11-23T14:32:50.605Z,7.97
2018-11-23T14:35:20.531Z,8.93
2018-11-23T14:37:49.717Z,7.23
2018-11-23T14:40:18.281Z,7.27
2018-11-23T14:42:47.721Z,9.50
2018-11-23T14:45:18.756Z,10.70
2018-11-23T14:47:48.177Z,10.20
2018-11-23T14:50:18.889Z,10.37
2018-11-23T14:52:48.673Z,8.83
2018-11-23T14:55:17.454Z,9.63
2018-11-23T14:57:46.245Z,9.13
2018-11-23T15:00:20.260Z,8.67
2018-11-23T15:02:49.970Z,10.83
2018-11-23T15:05:18.817Z,11.80
2018-11-23T15:07:47.316Z,10.50
2018-11-23T15:10:17.793Z,10.63
2018-11-23T15:12:47.244Z,11.47
2018-11-23T15:15:18.877Z,10.90
2018-11-23T15:17:48.301Z,10.57
2018-11-23T15:20:19.500Z,9.13
2018-11-23T15:22:49.488Z,11.07
2018-11-23T15:25:17.885Z,12.10
2018-11-23T15:27:46.332Z,10.33
2018-11-23T15:30:25.820Z,12.90
2018-11-23T15:32:54.870Z,13.73
2018-11-23T15:35:23.289Z,10.77
2018-11-23T15:37:51.732Z,12.60
2018-11-23T15:40:22.762Z,13.00
2018-11-23T15:42:52.181Z,12.77
2018-11-23T15:45:23.956Z,22.53
2018-11-23T15:47:52.558Z,20.93
2018-11-23T15:50:22.446Z,13.67
2018-11-23T15:52:51.054Z,15.50
2018-11-23T15:55:23.773Z,29.43
2018-11-23T15:57:53.337Z,21.93
2018-11-23T16:00:23.797Z,21.50
2018-11-23T16:02:52.333Z,15.93
2018-11-23T16:05:20.494Z,20.53
2018-11-23T16:07:49.334Z,16.83
2018-11-23T16:10:26.197Z,17.93
2018-11-23T16:12:56.026Z,26.00
2018-11-23T16:15:24.976Z,15.80
2018-11-23T16:17:53.773Z,13.27
2018-11-23T16:20:24.661Z,16.10
2018-11-23T16:22:57.575Z,63.57
2018-11-23T16:25:26.225Z,34.77
2018-11-23T16:27:56.258Z,46.60
2018-11-23T16:30:28.917Z,14.70
2018-11-23T16:32:58.651Z,29.67
2018-11-23T16:35:29.378Z,17.27
2018-11-23T16:37:59.077Z,13.17
2018-11-23T16:40:28.892Z,17.07
2018-11-23T16:42:58.079Z,24.57
2018-11-23T16:45:27.872Z,71.47
2018-11-23T16:47:57.198Z,16.50
2018-11-23T16:50:25.916Z,44.40
2018-11-23T16:52:54.555Z,15.50
2018-11-23T16:55:23.525Z,56.40
2018-11-23T16:57:55.333Z,15.90
2018-11-23T17:00:24.995Z,16.60
2018-11-23T17:02:53.890Z,15.87
2018-11-23T17:05:23.793Z,14.87
2018-11-23T17:07:52.194Z,16.10
2018-11-23T17:10:20.737Z,15.10
2018-11-23T17:12:49.177Z,16.67
2018-11-23T17:15:18.936Z,15.00
2018-11-23T17:17:48.456Z,19.97
2018-11-23T17:20:18.337Z,27.20
2018-11-23T17:22:47.963Z,21.67
2018-11-23T17:25:17.676Z,24.27
2018-11-23T17:27:46.154Z,19.83
2018-11-23T17:30:16.235Z,16.20
2018-11-23T17:32:44.660Z,15.87
2018-11-23T17:35:13.311Z,20.63
2018-11-23T17:37:42.118Z,17.60
2018-11-23T17:40:10.996Z,26.83
2018-11-23T17:42:39.453Z,20.03
2018-11-23T17:45:13.845Z,20.10
2018-11-23T17:47:42.285Z,19.50
2018-11-23T17:50:12.294Z,24.03
2018-11-23T17:52:40.857Z,20.73
2018-11-23T17:55:09.985Z,16.60
2018-11-23T17:57:38.633Z,23.70
2018-11-23T18:00:11.361Z,21.00
2018-11-23T18:02:39.789Z,21.70
2018-11-23T18:05:09.685Z,11.77
2018-11-23T18:07:38.283Z,15.47
2018-11-23T18:10:11.040Z,26.67
2018-11-23T18:12:39.454Z,15.97
2018-11-23T18:15:09.961Z,11.30
2018-11-23T18:17:38.545Z,17.73
2018-11-23T18:20:10.261Z,17.60
2018-11-23T18:22:39.080Z,17.40
2018-11-23T18:25:10.232Z,18.00
2018-11-23T18:27:38.699Z,13.53
2018-11-23T18:30:09.040Z,18.07
2018-11-23T18:32:37.461Z,32.03
2018-11-23T18:35:06.967Z,24.00
2018-11-23T18:37:35.370Z,19.10
2018-11-23T18:40:05.541Z,21.87
2018-11-23T18:42:33.965Z,16.83
2018-11-23T18:45:02.387Z,13.83
2018-11-23T18:47:30.817Z,12.73
2018-11-23T18:49:59.273Z,16.67
2018-11-23T18:52:27.657Z,19.97
2018-11-23T18:54:56.053Z,16.53
2018-11-23T18:57:24.462Z,13.83
2018-11-23T18:59:52.849Z,19.00
2018-11-23T19:02:21.310Z,16.80
2018-11-23T19:04:49.704Z,18.70
2018-11-23T19:07:18.090Z,13.73
2018-11-23T19:09:46.316Z,13.20
2018-11-23T19:12:14.693Z,13.63
2018-11-23T19:14:43.124Z,12.70
2018-11-23T19:17:11.501Z,14.53
2018-11-23T19:19:40.749Z,13.23
2018-11-23T19:22:09.125Z,11.87
2018-11-23T19:24:37.681Z,14.47
2018-11-23T19:27:06.216Z,13.50
2018-11-23T19:29:34.652Z,17.17
2018-11-23T19:32:03.045Z,12.97
2018-11-23T19:34:31.533Z,11.30
2018-11-23T19:36:59.925Z,9.97
2018-11-23T19:39:28.325Z,11.40
2018-11-23T19:41:56.425Z,8.77
2018-11-23T19:44:24.836Z,10.57
2018-11-23T19:46:53.489Z,10.37
2018-11-23T19:49:21.600Z,12.10
2018-11-23T19:51:50.004Z,8.87
2018-11-23T19:54:18.116Z,10.30
2018-11-23T19:56:46.495Z,8.53
2018-11-23T19:59:14.928Z,10.33
2018-11-23T20:01:43.460Z,11.10
2018-11-23T20:04:12.097Z,10.30
2018-11-23T20:06:42.804Z,12.23
2018-11-23T20:09:10.293Z,11.60
2018-11-23T20:11:38.950Z,11.17
2018-11-23T20:14:07.633Z,11.27
2018-11-23T20:16:36.060Z,13.07
2018-11-23T20:19:04.681Z,10.30
2018-11-23T20:21:33.071Z,10.60
2018-11-23T20:24:01.477Z,11.60
2018-11-23T20:26:29.914Z,13.87
2018-11-23T20:28:58.345Z,9.43
2018-11-23T20:31:26.791Z,10.23
2018-11-23T20:33:55.186Z,9.17
2018-11-23T20:36:23.793Z,9.47
2018-11-23T20:38:52.157Z,9.20
2018-11-23T20:41:20.574Z,10.27
2018-11-23T20:43:48.705Z,9.80
2018-11-23T20:46:20.877Z,12.03
2018-11-23T20:48:49.338Z,10.90
2018-11-23T20:51:17.729Z,10.47
2018-11-23T20:53:46.149Z,11.10
2018-11-23T20:56:14.562Z,12.33
2018-11-23T20:58:42.952Z,13.30
2018-11-23T21:01:11.360Z,12.63
2018-11-23T21:03:39.745Z,10.63
2018-11-23T21:06:08.141Z,10.80
2018-11-23T21:08:36.517Z,12.33
2018-11-23T21:11:04.972Z,13.83
2018-11-23T21:13:33.349Z,10.83
2018-11-23T21:16:01.752Z,11.30
2018-11-23T21:18:30.241Z,12.80
2018-11-23T21:20:58.683Z,12.40
2018-11-23T21:23:27.076Z,9.17
2018-11-23T21:25:55.453Z,9.77
2018-11-23T21:28:23.853Z,12.23
2018-11-23T21:30:52.241Z,10.23
2018-11-23T21:33:20.320Z,10.17
2018-11-23T21:35:48.726Z,10.30
2018-11-23T21:38:17.105Z,13.67
2018-11-23T21:40:45.584Z,12.43
2018-11-23T21:43:13.972Z,12.30
2018-11-23T21:45:42.380Z,9.13
2018-11-23T21:48:10.764Z,10.77
2018-11-23T21:50:39.173Z,10.83
2018-11-23T21:53:07.294Z,10.53
2018-11-23T21:55:35.792Z,9.77
2018-11-23T21:58:04.198Z,9.93
2018-11-23T22:00:32.578Z,10.10
2018-11-23T22:03:01.049Z,8.53
2018-11-23T22:05:29.428Z,10.87
2018-11-23T22:07:57.565Z,8.87
2018-11-23T22:10:25.995Z,9.57
2018-11-23T22:12:54.385Z,10.03
2018-11-23T22:15:23.965Z,10.50
2018-11-23T22:17:53.677Z,10.30
2018-11-23T22:20:22.701Z,8.70
2018-11-23T22:22:51.099Z,11.07
2018-11-23T22:25:20.617Z,9.70
2018-11-23T22:27:49.114Z,9.03
2018-11-23T22:30:20.021Z,10.43
2018-11-23T22:32:48.420Z,10.80
2018-11-23T22:35:16.810Z,10.60
2018-11-23T22:37:44.913Z,8.93
2018-11-23T22:40:14.453Z,11.63
2018-11-23T22:42:44.240Z,12.43
2018-11-23T22:45:13.515Z,11.47
2018-11-23T22:47:41.938Z,8.00
2018-11-23T22:50:17.514Z,9.43
2018-11-23T22:52:45.917Z,10.93
2018-11-23T22:55:15.537Z,10.07
2018-11-23T22:57:43.985Z,9.37
2018-11-23T23:00:21.893Z,8.77
2018-11-23T23:02:50.663Z,8.33
2018-11-23T23:05:20.292Z,7.33
2018-11-23T23:07:48.705Z,10.70
2018-11-23T23:10:17.098Z,11.27
2018-11-23T23:12:45.524Z,9.97
2018-11-23T23:15:13.910Z,9.33
2018-11-23T23:17:42.506Z,9.57
2018-11-23T23:20:12.166Z,8.53
2018-11-23T23:22:40.556Z,11.57
2018-11-23T23:25:09.468Z,9.57
2018-11-23T23:27:38.140Z,9.00
2018-11-23T23:30:11.697Z,8.67
2018-11-23T23:32:40.206Z,8.00
2018-11-23T23:35:08.773Z,10.10
2018-11-23T23:37:37.345Z,8.73
2018-11-23T23:40:08.653Z,10.70
2018-11-23T23:42:37.036Z,9.17
2018-11-23T23:45:07.771Z,10.20
2018-11-23T23:47:36.198Z,9.33
2018-11-23T23:50:05.930Z,9.13
2018-11-23T23:52:34.306Z,10.17
2018-11-23T23:55:02.694Z,9.20
2018-11-23T23:57:31.079Z,11.67
2018-11-23T23:59:59.525Z,8.93
